Impacts METAR Board
IDs:

KFLL - Ft Lauderdale-Hollyw, FL, US

Updated at: 1000 UTC 07 Dec 2022
Potential Impact None Slight Moderate High
Time 06/22Z 06/23Z 07/00Z 07/01Z 07/02Z 07/03Z 07/04Z 07/05Z 07/06Z 07/07Z 07/08Z 07/09Z 07/10Z
Temp78 77 76 76 76 75 75 76 75 75 74 75 74
Dewpt65 65 64 65 64 64 63 64 64 65 65 65 65
Altim30.14 30.15 30.16 30.17 30.18 30.19 30.20 30.19 30.18 30.18 30.17 30.16 30.17
VIS10 10 10 10 10 10 10 10 10 10 10 10 10
CIG-- 55 -- -- -- -- -- -- -- -- -- -- --
CoverFEWBKNFEWFEWFEWFEWFEWFEWFEWFEWFEWFEWCLR
FltCatVFRVFRVFRVFRVFRVFRVFRVFRVFRVFRVFRVFRVFR
WX--------------------------
WDir70606060605060706060707050
WSpd7 9 6 7 8 5 6 8 5 6 4 7 4
WGst-- -- -- -- -- -- -- -- -- -- -- -- --
Raw hourly METARs
KFLL 062153Z 07007KT 10SM FEW032 26/18 A3014 RMK AO2 SLP204 T02560183 $
KFLL 062253Z 06009KT 10SM SCT045 BKN055 25/18 A3015 RMK AO2 SLP208 T02500183 $
KFLL 062353Z COR 06006KT 10SM FEW030 24/18 A3016 RMK AO2 SLP212 T02440178 10278 20244 53010 $
KFLL 070053Z COR 06007KT 10SM FEW030 24/18 A3017 RMK AO2 SLP216 T02440183 $
KFLL 070153Z 06008KT 10SM FEW031 24/18 A3018 RMK AO2 SLP219 T02440178 $
KFLL 070253Z 05005KT 10SM FEW032 24/18 A3019 RMK AO2 SLP223 T02390178 53010 $
KFLL 070353Z 06006KT 10SM FEW035 24/17 A3020 RMK AO2 SLP224 T02390172 $
KFLL 070453Z 07008KT 10SM FEW035 24/18 A3019 RMK AO2 SLP223 T02440178 402780206 $
KFLL 070553Z 06005KT 10SM FEW040 24/18 A3018 RMK AO2 SLP218 T02390178 10244 20239 58004 $
KFLL 070653Z 06006KT 10SM FEW040 24/18 A3018 RMK AO2 SLP218 T02390183 $
KFLL 070753Z 07004KT 10SM FEW035 23/18 A3017 RMK AO2 SLP215 T02330183 $
KFLL 070853Z 07007KT 10SM FEW030 FEW050 24/18 A3016 RMK AO2 SLP213 T02390183 58006 $
KFLL 070953Z 05004KT 10SM CLR 23/18 A3017 RMK AO2 SLP215 T02330183 $



Page loaded:  10:32 UTC  |   02:32 AM Pacific  |   03:32 AM Mountain  |   04:32 AM Central  |   05:32 AM Eastern

 

ADVISORIES

FORECASTS

FORECASTS

OBSERVATIONS

USER TOOLS

ABOUT US